Time;durP1;ratioP1;P1;durP2;ratioP2;P2;SDS_P1;SDS_P2;PMS_P1;PMS_P2;Temp;Humidity;BMP_temperature;BMP_pressure;BME280_temperature;BME280_humidity;BME280_pressure;Samples;Min_cycle;Max_cycle;Signal;HPM_P1;HPM_P2
2023/06/01 00:02:03;;;;;;;;;;;;;;;27.62;24.52;98406.56;5084249;28;19932;-87
2023/06/01 00:04:29;;;;;;;;;;;;;;;27.63;24.65;98413.00;5104759;28;20295;-87
2023/06/01 00:06:56;;;;;;;;;;;;;;;27.75;25.22;98403.75;5092593;28;19920;-87
2023/06/01 00:09:22;;;;;;;;;;;;;;;27.74;24.63;98411.44;5089490;28;19924;-87
2023/06/01 00:11:48;;;;;;;;;;;;;;;27.74;24.09;98402.16;5092437;28;19919;-87
2023/06/01 00:14:14;;;;;;;;;;;;;;;27.67;24.21;98411.66;5091541;28;19920;-87
2023/06/01 00:16:40;;;;;;;;;;;;;;;27.72;24.54;98408.28;5090009;28;19927;-87
2023/06/01 00:19:06;;;;;;;;;;;;;;;27.46;24.59;98406.66;5087642;28;19916;-87
2023/06/01 00:21:35;;;;;;;;;;;;;;;27.30;24.94;98395.44;5093156;28;19928;-87
2023/06/01 00:24:01;;;;;;;;;;;;;;;27.25;24.86;98393.19;5087790;28;19946;-87
2023/06/01 00:26:27;;;;;;;;;;;;;;;27.38;25.25;98402.47;5087578;28;19916;-87
2023/06/01 00:28:53;;;;;;;;;;;;;;;27.39;25.25;98401.25;5092471;28;19927;-87
2023/06/01 00:31:19;;;;;;;;;;;;;;;27.40;25.61;98403.59;5077857;28;19917;-87
2023/06/01 00:33:45;;;;;;;;;;;;;;;27.43;24.81;98396.28;5074184;28;20245;-88
2023/06/01 00:36:11;;;;;;;;;;;;;;;27.26;24.63;98404.00;5086520;28;19920;-87
2023/06/01 00:38:37;;;;;;;;;;;;;;;26.95;25.03;98402.13;5091992;28;20014;-87
2023/06/01 00:41:04;;;;;;;;;;;;;;;26.76;25.27;98405.88;5094656;28;19920;-87
2023/06/01 00:43:30;;;;;;;;;;;;;;;26.91;25.14;98412.72;5096218;28;20007;-87
2023/06/01 00:45:56;;;;;;;;;;;;;;;27.03;25.33;98409.13;5076771;28;20415;-87
2023/06/01 00:48:23;;;;;;;;;;;;;;;27.12;25.05;98409.28;5083770;28;19929;-86
2023/06/01 00:50:49;;;;;;;;;;;;;;;27.21;24.65;98412.22;5095839;28;20025;-87
2023/06/01 00:53:19;;;;;;;;;;;;;;;27.22;24.43;98402.53;5092379;28;19924;-87
2023/06/01 00:55:46;;;;;;;;;;;;;;;27.29;24.37;98400.28;5090706;28;19927;-87
2023/06/01 00:58:13;;;;;;;;;;;;;;;27.36;25.09;98397.25;5095629;28;19920;-87
2023/06/01 01:00:40;;;;;;;;;;;;;;;27.02;24.92;98404.72;5093442;28;19943;-87
2023/06/01 01:03:09;;;;;;;;;;;;;;;27.04;25.29;98396.63;5091193;28;19939;-87
2023/06/01 01:05:36;;;;;;;;;;;;;;;27.17;24.87;98403.88;5087731;28;19927;-87
2023/06/01 01:08:25;;;;;;;;;;;;;;;27.23;24.81;98401.28;5094816;28;19916;-87
2023/06/01 01:11:11;;;;;;;;;;;;;;;27.26;24.33;98392.72;5068207;28;19925;-87
2023/06/01 01:13:41;;;;;;;;;;;;;;;27.21;24.13;98398.91;5062306;28;19920;-87
2023/06/01 01:16:17;;;;;;;;;;;;;;;26.98;24.48;98393.53;5078863;28;19920;-87
2023/06/01 01:18:46;;;;;;;;;;;;;;;27.01;24.73;98395.47;5094538;28;19920;-87
2023/06/01 01:21:27;;;;;;;;;;;;;;;27.17;24.30;98395.41;5096599;28;20069;-87
2023/06/01 01:23:58;;;;;;;;;;;;;;;27.28;24.21;98386.66;5066481;28;20066;-86
2023/06/01 01:26:24;;;;;;;;;;;;;;;27.22;23.65;98392.03;5071742;28;19936;-87
2023/06/01 01:29:00;;;;;;;;;;;;;;;27.30;23.68;98392.63;5070895;28;19921;-87
2023/06/01 01:31:26;;;;;;;;;;;;;;;27.23;24.06;98395.66;5072346;28;19959;-87
2023/06/01 01:33:53;;;;;;;;;;;;;;;27.20;24.01;98397.34;5072418;28;19976;-87
2023/06/01 01:36:19;;;;;;;;;;;;;;;27.28;23.91;98395.09;5075126;28;20372;-87
2023/06/01 01:38:46;;;;;;;;;;;;;;;27.03;24.68;98397.84;5068313;28;19921;-86
2023/06/01 01:41:12;;;;;;;;;;;;;;;27.11;24.29;98393.59;5096449;28;19912;-86
2023/06/01 01:43:39;;;;;;;;;;;;;;;27.20;24.05;98391.72;5079311;28;19920;-87
2023/06/01 01:46:25;;;;;;;;;;;;;;;26.96;24.33;98389.59;5064121;28;19921;-86
2023/06/01 01:48:57;;;;;;;;;;;;;;;26.64;24.43;98394.09;5075323;28;19928;-87
2023/06/01 01:51:29;;;;;;;;;;;;;;;26.64;24.61;98394.09;5071256;28;19920;-87
2023/06/01 01:53:57;;;;;;;;;;;;;;;26.86;24.50;98385.06;5076271;28;20261;-88
2023/06/01 01:56:25;;;;;;;;;;;;;;;26.92;24.13;98386.09;5068350;28;19979;-87
2023/06/01 01:58:52;;;;;;;;;;;;;;;26.92;24.19;98386.09;5070234;28;20291;-87
2023/06/01 02:01:19;;;;;;;;;;;;;;;26.77;23.82;98380.06;5067892;28;19994;-87
2023/06/01 02:03:45;;;;;;;;;;;;;;;26.74;24.31;98381.75;5074598;28;19925;-86
2023/06/01 02:06:11;;;;;;;;;;;;;;;26.63;24.27;98375.59;5074624;28;19978;-87
2023/06/01 02:08:37;;;;;;;;;;;;;;;26.46;25.07;98370.47;5064451;28;19929;-86
2023/06/01 02:11:03;;;;;;;;;;;;;;;26.56;24.71;98363.72;5067430;28;19952;-86
2023/06/01 02:13:30;;;;;;;;;;;;;;;26.64;24.05;98360.28;5072050;28;19959;-86
2023/06/01 02:15:56;;;;;;;;;;;;;;;26.72;24.23;98358.06;5074263;28;19920;-87
2023/06/01 02:18:22;;;;;;;;;;;;;;;26.80;24.08;98361.47;5069521;28;20376;-87
2023/06/01 02:20:48;;;;;;;;;;;;;;;26.84;24.11;98360.13;5061925;28;19924;-87
2023/06/01 02:23:14;;;;;;;;;;;;;;;26.76;24.19;98358.78;5075108;28;20045;-87
2023/06/01 02:25:40;;;;;;;;;;;;;;;26.70;24.58;98354.88;5090868;28;20054;-87
2023/06/01 02:28:07;;;;;;;;;;;;;;;26.59;24.43;98358.00;5073814;28;19920;-87
2023/06/01 02:30:33;;;;;;;;;;;;;;;26.44;24.20;98358.84;5074409;28;19927;-87
2023/06/01 02:32:59;;;;;;;;;;;;;;;26.55;24.13;98350.91;5072137;28;20011;-87
2023/06/01 02:35:25;;;;;;;;;;;;;;;26.64;24.61;98351.84;5059543;28;19916;-87
2023/06/01 02:37:58;;;;;;;;;;;;;;;26.69;24.52;98348.47;5067631;28;19932;-87
2023/06/01 02:43:13;;;;;;;;;;;;;;;26.79;24.40;98348.66;5077426;28;19969;-87
2023/06/01 02:45:39;;;;;;;;;;;;;;;26.90;24.19;98340.66;5069386;28;19920;-87
2023/06/01 02:48:05;;;;;;;;;;;;;;;26.99;24.24;98337.97;5075731;28;19916;-87
2023/06/01 02:50:31;;;;;;;;;;;;;;;27.08;23.86;98341.72;5074089;28;19925;-87
2023/06/01 02:52:57;;;;;;;;;;;;;;;27.08;24.01;98338.09;5063144;28;19920;-87
2023/06/01 02:55:23;;;;;;;;;;;;;;;27.13;24.02;98335.53;5062102;28;19986;-86
2023/06/01 02:57:49;;;;;;;;;;;;;;;26.89;23.97;98339.06;5072699;28;19920;-86
2023/06/01 03:00:17;;;;;;;;;;;;;;;26.65;24.72;98335.72;5074025;28;19927;-87
2023/06/01 03:02:46;;;;;;;;;;;;;;;26.72;24.40;98332.72;5070453;28;19932;-87
2023/06/01 03:05:14;;;;;;;;;;;;;;;26.89;24.14;98331.41;5072077;28;19925;-87
2023/06/01 03:07:41;;;;;;;;;;;;;;;26.86;24.38;98325.91;5070373;28;20299;-87
2023/06/01 03:10:07;;;;;;;;;;;;;;;26.86;24.39;98337.97;5065368;28;19916;-87
2023/06/01 03:12:34;;;;;;;;;;;;;;;26.89;24.62;98334.22;5071898;28;19935;-87
2023/06/01 03:15:00;;;;;;;;;;;;;;;26.79;24.66;98334.56;5071131;28;20029;-87
2023/06/01 03:17:26;;;;;;;;;;;;;;;26.90;24.76;98337.84;5070660;28;19920;-87
2023/06/01 03:19:52;;;;;;;;;;;;;;;26.95;24.45;98340.13;5068672;28;20087;-87
2023/06/01 03:22:18;;;;;;;;;;;;;;;27.11;24.77;98342.84;5098430;28;19998;-87
2023/06/01 03:24:47;;;;;;;;;;;;;;;27.14;24.68;98344.78;5099285;28;20065;-87
2023/06/01 03:27:13;;;;;;;;;;;;;;;27.42;24.72;98338.31;5074672;28;19920;-87
2023/06/01 03:29:39;;;;;;;;;;;;;;;27.77;24.39;98339.97;5094209;28;19916;-88
2023/06/01 03:32:06;;;;;;;;;;;;;;;28.05;24.97;98336.22;5093370;28;20011;-87
2023/06/01 03:34:32;;;;;;;;;;;;;;;28.63;25.12;98325.34;5093224;28;20027;-87
2023/06/01 03:36:58;;;;;;;;;;;;;;;29.37;24.60;98333.03;5093769;28;20379;-87
2023/06/01 03:39:24;;;;;;;;;;;;;;;29.46;23.83;98329.47;5103931;28;19920;-87
2023/06/01 03:41:50;;;;;;;;;;;;;;;29.35;24.78;98325.03;5091366;28;19920;-88
2023/06/01 03:44:16;;;;;;;;;;;;;;;29.44;25.09;98329.94;5076292;28;19973;-87
2023/06/01 03:46:42;;;;;;;;;;;;;;;29.55;24.66;98329.50;5082771;28;20324;-87
2023/06/01 03:49:08;;;;;;;;;;;;;;;29.57;25.00;98327.00;5092558;28;19920;-87
2023/06/01 03:51:35;;;;;;;;;;;;;;;29.84;25.00;98325.09;5094080;28;19919;-87
2023/06/01 03:54:02;;;;;;;;;;;;;;;30.04;23.40;98325.44;5091934;28;19923;-87
2023/06/01 03:56:28;;;;;;;;;;;;;;;30.17;23.16;98325.31;5091176;28;19920;-87
2023/06/01 03:58:54;;;;;;;;;;;;;;;30.31;24.17;98324.69;5093322;28;19969;-87
2023/06/01 04:01:21;;;;;;;;;;;;;;;30.45;23.91;98323.31;5088571;28;19919;-88
2023/06/01 04:03:48;;;;;;;;;;;;;;;30.49;23.27;98318.28;5094067;28;20333;-88
2023/06/01 04:06:17;;;;;;;;;;;;;;;30.58;23.74;98312.59;5093413;28;19966;-88
2023/06/01 04:08:48;;;;;;;;;;;;;;;30.64;24.82;98320.00;5089033;28;19920;-88
2023/06/01 04:11:15;;;;;;;;;;;;;;;31.12;24.50;98326.75;5091830;28;20015;-89
2023/06/01 04:13:42;;;;;;;;;;;;;;;31.55;23.84;98319.84;5093845;28;20385;-89
2023/06/01 04:16:07;;;;;;;;;;;;;;;31.55;23.89;98324.75;5093998;28;19977;-88
2023/06/01 04:18:34;;;;;;;;;;;;;;;31.56;23.92;98315.72;5079520;28;19917;-88
2023/06/01 04:21:00;;;;;;;;;;;;;;;31.66;23.91;98314.44;5090608;28;20003;-89
2023/06/01 04:23:26;;;;;;;;;;;;;;;31.76;24.46;98318.81;5083069;28;19933;-89
2023/06/01 04:25:53;;;;;;;;;;;;;;;32.21;23.31;98305.63;5085799;28;20463;-90
2023/06/01 04:28:20;;;;;;;;;;;;;;;32.66;23.18;98311.75;5085219;28;20293;-88
2023/06/01 04:30:51;;;;;;;;;;;;;;;33.03;22.71;98309.34;5091424;28;19973;-86
2023/06/01 04:33:17;;;;;;;;;;;;;;;33.11;22.52;98310.53;5089235;28;20376;-87
2023/06/01 04:35:43;;;;;;;;;;;;;;;32.85;22.57;98306.66;5076719;28;19920;-88
2023/06/01 04:38:09;;;;;;;;;;;;;;;32.83;23.51;98299.91;5090132;28;19924;-88
2023/06/01 04:40:35;;;;;;;;;;;;;;;32.79;23.52;98296.47;5092735;28;19916;-88
2023/06/01 04:43:02;;;;;;;;;;;;;;;32.81;23.78;98297.56;5082144;28;19924;-86
2023/06/01 04:45:33;;;;;;;;;;;;;;;32.75;23.14;98299.50;5085008;28;19934;-88
2023/06/01 04:48:00;;;;;;;;;;;;;;;32.70;23.41;98292.41;5084266;28;19969;-89
2023/06/01 04:50:28;;;;;;;;;;;;;;;32.67;23.58;98298.31;5090608;28;19966;-88
2023/06/01 04:52:55;;;;;;;;;;;;;;;32.74;23.92;98298.69;5082070;28;19921;-88
2023/06/01 04:55:21;;;;;;;;;;;;;;;32.82;23.33;98296.25;5092648;28;19933;-88
2023/06/01 04:57:47;;;;;;;;;;;;;;;32.94;23.18;98303.72;5092877;28;20030;-84
2023/06/01 05:00:18;;;;;;;;;;;;;;;33.09;23.38;98307.41;5081880;28;20136;-87
2023/06/01 05:02:47;;;;;;;;;;;;;;;33.12;23.30;98306.41;5089464;28;20013;-87
2023/06/01 05:05:14;;;;;;;;;;;;;;;33.39;22.05;98303.25;5091354;28;19943;-87
2023/06/01 05:07:41;;;;;;;;;;;;;;;33.41;22.93;98300.69;5091303;28;19923;-87
2023/06/01 05:10:08;;;;;;;;;;;;;;;33.50;23.85;98294.09;5087272;28;19920;-87
2023/06/01 05:12:35;;;;;;;;;;;;;;;33.69;23.92;98301.16;5093001;28;20375;-87
2023/06/01 05:15:02;;;;;;;;;;;;;;;33.87;23.28;98297.28;5093188;28;19924;-87
2023/06/01 05:17:28;;;;;;;;;;;;;;;33.92;22.86;98303.06;5096060;28;19920;-87
2023/06/01 05:19:54;;;;;;;;;;;;;;;34.33;22.88;98301.03;5102058;28;19922;-87
2023/06/01 05:22:20;;;;;;;;;;;;;;;34.76;23.41;98302.09;5092802;28;20372;-87
2023/06/01 05:24:46;;;;;;;;;;;;;;;35.17;22.47;98299.94;5090725;28;19920;-88
2023/06/01 05:27:12;;;;;;;;;;;;;;;35.51;22.68;98295.31;5091396;28;19920;-87
2023/06/01 05:29:38;;;;;;;;;;;;;;;35.72;22.57;98296.75;5096590;28;20295;-85
2023/06/01 05:32:05;;;;;;;;;;;;;;;35.88;22.21;98299.72;5096260;28;19920;-87
2023/06/01 05:34:31;;;;;;;;;;;;;;;35.98;22.13;98292.56;5096378;28;19924;-88
2023/06/01 05:36:57;;;;;;;;;;;;;;;36.02;22.08;98287.38;5112202;28;20283;-90
2023/06/01 05:39:27;;;;;;;;;;;;;;;36.05;21.74;98297.00;5094679;28;19924;-86
2023/06/01 05:41:57;;;;;;;;;;;;;;;36.05;22.13;98288.41;5093824;28;19917;-87
2023/06/01 05:44:23;;;;;;;;;;;;;;;36.12;22.42;98292.88;5076193;28;19935;-88
2023/06/01 05:46:50;;;;;;;;;;;;;;;36.28;22.04;98292.16;5075865;28;19970;-86
2023/06/01 05:49:16;;;;;;;;;;;;;;;36.41;22.29;98283.91;5075952;28;19916;-87
2023/06/01 05:51:42;;;;;;;;;;;;;;;36.41;21.56;98281.81;5082228;28;19916;-87
2023/06/01 05:54:09;;;;;;;;;;;;;;;36.40;21.27;98288.84;5096150;28;20394;-87
2023/06/01 05:56:40;;;;;;;;;;;;;;;36.54;21.73;98287.88;5096022;28;19961;-88
2023/06/01 05:59:06;;;;;;;;;;;;;;;36.53;20.72;98279.81;5092151;28;19916;-88
2023/06/01 06:01:32;;;;;;;;;;;;;;;36.30;21.30;98280.97;5084110;28;20418;-89
2023/06/01 06:03:58;;;;;;;;;;;;;;;36.05;22.02;98283.50;5082703;28;20314;-91
2023/06/01 06:06:25;;;;;;;;;;;;;;;36.15;20.82;98281.19;5095637;28;19916;-89
2023/06/01 06:08:51;;;;;;;;;;;;;;;36.36;20.14;98284.66;5083097;28;19931;-90
2023/06/01 06:11:17;;;;;;;;;;;;;;;36.44;20.29;98277.13;5101731;28;19943;-90
2023/06/01 06:13:43;;;;;;;;;;;;;;;36.69;19.65;98268.41;5098588;28;19923;-90
2023/06/01 06:16:09;;;;;;;;;;;;;;;36.86;18.70;98274.16;5107040;28;19924;-89
2023/06/01 06:18:35;;;;;;;;;;;;;;;36.94;19.26;98272.41;5086392;28;19920;-88
2023/06/01 06:21:01;;;;;;;;;;;;;;;37.10;18.40;98268.78;5074546;28;19976;-89
2023/06/01 06:23:30;;;;;;;;;;;;;;;37.15;19.02;98270.06;5082865;28;20054;-89
2023/06/01 06:25:56;;;;;;;;;;;;;;;37.30;17.90;98267.72;5074789;28;19952;-90
2023/06/01 06:28:23;;;;;;;;;;;;;;;37.17;18.77;98276.06;5056969;28;19931;-88
2023/06/01 06:30:49;;;;;;;;;;;;;;;37.13;18.51;98270.56;5074974;28;19926;-89
2023/06/01 06:33:15;;;;;;;;;;;;;;;37.03;19.02;98266.41;5069835;28;19924;-88
2023/06/01 06:35:42;;;;;;;;;;;;;;;37.08;18.68;98271.38;5062634;28;19921;-88
2023/06/01 06:38:08;;;;;;;;;;;;;;;37.17;17.80;98264.59;5070837;28;19982;-89
2023/06/01 06:40:34;;;;;;;;;;;;;;;37.26;18.28;98267.19;5056878;28;19974;-89
2023/06/01 06:43:00;;;;;;;;;;;;;;;37.29;18.61;98271.91;5074726;28;20283;-90
2023/06/01 06:45:26;;;;;;;;;;;;;;;37.14;18.70;98266.41;5074877;28;19927;-90
2023/06/01 06:47:52;;;;;;;;;;;;;;;37.12;18.44;98269.03;5056664;28;19920;-90
2023/06/01 06:50:18;;;;;;;;;;;;;;;37.14;18.06;98269.28;5062533;28;19927;-90
2023/06/01 06:52:44;;;;;;;;;;;;;;;37.31;18.44;98258.63;5073975;28;19928;-89
2023/06/01 06:55:10;;;;;;;;;;;;;;;37.52;19.02;98253.41;5074586;28;19917;-88
2023/06/01 06:57:38;;;;;;;;;;;;;;;37.61;19.17;98253.13;5073311;28;19928;-89
2023/06/01 07:00:07;;;;;;;;;;;;;;;37.63;18.95;98250.53;5072858;28;20283;-90
2023/06/01 07:02:34;;;;;;;;;;;;;;;37.28;19.24;98248.19;5072443;28;19944;-89
2023/06/01 07:05:00;;;;;;;;;;;;;;;37.45;19.77;98250.28;5073090;28;19917;-89
2023/06/01 07:07:26;;;;;;;;;;;;;;;37.29;19.73;98243.25;5055398;28;20268;-90
2023/06/01 07:09:53;;;;;;;;;;;;;;;37.09;19.20;98252.09;5072678;28;19936;-90
2023/06/01 07:12:19;;;;;;;;;;;;;;;37.28;19.45;98245.34;5073156;28;20372;-90
2023/06/01 07:14:45;;;;;;;;;;;;;;;36.53;18.67;98249.13;5068112;28;20011;-91
2023/06/01 07:17:11;;;;;;;;;;;;;;;36.46;19.49;98246.75;5072867;28;19964;-90
2023/06/01 07:19:37;;;;;;;;;;;;;;;36.63;18.27;98249.66;5072965;28;19916;-91
2023/06/01 07:22:03;;;;;;;;;;;;;;;36.52;18.67;98247.56;5072889;28;20351;-90
2023/06/01 07:24:29;;;;;;;;;;;;;;;36.71;18.40;98250.75;5072039;28;19916;-91
2023/06/01 07:26:56;;;;;;;;;;;;;;;36.47;18.31;98247.53;5072749;28;19916;-90
2023/06/01 07:29:22;;;;;;;;;;;;;;;35.95;19.69;98250.66;5072216;28;19931;-90
2023/06/01 07:31:49;;;;;;;;;;;;;;;35.49;19.70;98247.25;5072152;28;20015;-89
2023/06/01 07:34:15;;;;;;;;;;;;;;;35.59;21.03;98250.72;5072950;28;20291;-91
2023/06/01 07:36:41;;;;;;;;;;;;;;;36.14;20.30;98251.03;5068262;28;19964;-90
2023/06/01 07:39:08;;;;;;;;;;;;;;;36.68;19.31;98237.44;5066632;28;19932;-89
2023/06/01 07:41:35;;;;;;;;;;;;;;;37.07;17.96;98232.56;5070665;28;19917;-91
2023/06/01 07:44:01;;;;;;;;;;;;;;;37.25;18.59;98234.91;5072661;28;20007;-90
2023/06/01 07:46:27;;;;;;;;;;;;;;;37.41;18.03;98235.47;5072300;28;19916;-90
2023/06/01 07:48:53;;;;;;;;;;;;;;;37.52;17.68;98235.44;5072028;28;19920;-90
2023/06/01 07:51:19;;;;;;;;;;;;;;;37.33;17.72;98232.31;5072940;28;20058;-91
2023/06/01 07:53:45;;;;;;;;;;;;;;;37.31;17.65;98229.19;5071856;28;19982;-90
2023/06/01 07:56:11;;;;;;;;;;;;;;;37.33;17.40;98227.38;5072132;28;19928;-91
2023/06/01 07:58:37;;;;;;;;;;;;;;;37.07;17.06;98234.66;5069710;28;20372;-91
2023/06/01 08:01:04;;;;;;;;;;;;;;;37.06;17.45;98224.50;5067620;28;19916;-92
2023/06/01 08:03:33;;;;;;;;;;;;;;;37.08;17.26;98219.84;5072122;28;19924;-92
2023/06/01 08:06:02;;;;;;;;;;;;;;;36.78;17.30;98224.47;5072624;28;19916;-90
2023/06/01 08:08:28;;;;;;;;;;;;;;;36.78;18.59;98226.53;5072960;28;19917;-91
2023/06/01 08:10:54;;;;;;;;;;;;;;;36.64;17.45;98219.75;5071788;28;19920;-91
2023/06/01 08:14:59;;;;;;;;;;;;;;;35.10;18.41;98206.19;5101072;27;20391;-91
2023/06/01 08:17:25;;;;;;;;;;;;;;;35.15;16.20;98219.72;5095363;28;20284;-90
2023/06/01 08:19:52;;;;;;;;;;;;;;;35.58;17.56;98221.34;5099099;28;19930;-90
2023/06/01 08:22:20;;;;;;;;;;;;;;;35.59;16.40;98217.22;5102822;28;19927;-89
2023/06/01 08:24:47;;;;;;;;;;;;;;;35.89;17.25;98209.84;5095429;28;19921;-89
2023/06/01 08:27:20;;;;;;;;;;;;;;;35.61;18.30;98210.97;5102303;28;19924;-90
2023/06/01 08:29:47;;;;;;;;;;;;;;;35.73;16.17;98213.38;5091213;28;19920;-89
2023/06/01 08:32:13;;;;;;;;;;;;;;;36.11;16.07;98208.41;5090406;28;19927;-91
2023/06/01 08:34:39;;;;;;;;;;;;;;;36.31;15.78;98205.34;5088872;28;19920;-92
2023/06/01 08:37:05;;;;;;;;;;;;;;;36.47;16.30;98196.84;5087843;28;19928;-91
2023/06/01 08:39:31;;;;;;;;;;;;;;;36.79;16.19;98199.47;5087713;28;20473;-91
2023/06/01 08:42:08;;;;;;;;;;;;;;;36.03;17.66;98200.31;5088785;28;20019;-92
2023/06/01 08:44:41;;;;;;;;;;;;;;;35.30;17.92;98194.66;5089618;28;19964;-90
2023/06/01 08:47:07;;;;;;;;;;;;;;;36.00;16.35;98189.91;5085808;28;19917;-91
2023/06/01 08:49:34;;;;;;;;;;;;;;;36.06;15.18;98190.69;5092273;28;19920;-91
2023/06/01 08:52:02;;;;;;;;;;;;;;;36.42;14.64;98188.19;5089698;28;20317;-91
2023/06/01 08:54:31;;;;;;;;;;;;;;;36.69;15.63;98184.63;5090653;28;19924;-91
2023/06/01 08:57:03;;;;;;;;;;;;;;;36.37;15.80;98186.09;5088708;28;19920;-91
2023/06/01 08:59:29;;;;;;;;;;;;;;;36.29;15.88;98183.00;5087778;28;19948;-91
2023/06/01 09:01:57;;;;;;;;;;;;;;;36.33;15.51;98177.00;5088906;28;20394;-91
2023/06/01 09:04:23;;;;;;;;;;;;;;;36.54;15.49;98176.31;5084668;28;19916;-90
2023/06/01 09:06:49;;;;;;;;;;;;;;;35.51;16.94;98184.69;5096889;28;19973;-91
2023/06/01 09:09:17;;;;;;;;;;;;;;;34.40;17.85;98182.94;5092658;28;19913;-90
2023/06/01 09:11:44;;;;;;;;;;;;;;;34.69;18.79;98177.78;5089144;28;19920;-91
2023/06/01 09:14:23;;;;;;;;;;;;;;;35.35;16.01;98169.00;5099513;28;19924;-91
2023/06/01 09:16:50;;;;;;;;;;;;;;;35.10;15.63;98164.13;5104456;28;19916;-90
2023/06/01 09:19:18;;;;;;;;;;;;;;;35.40;16.38;98170.31;5112132;28;19927;-90
2023/06/01 09:21:57;;;;;;;;;;;;;;;34.27;16.85;98163.34;5108715;28;20429;-90
2023/06/01 09:24:23;;;;;;;;;;;;;;;34.38;18.16;98171.25;5107507;28;19975;-91
2023/06/01 09:26:49;;;;;;;;;;;;;;;35.03;17.15;98153.19;5095197;28;19958;-90
2023/06/01 09:29:16;;;;;;;;;;;;;;;34.89;16.23;98162.69;5098059;28;19927;-92
2023/06/01 09:31:44;;;;;;;;;;;;;;;34.61;18.21;98158.81;5094873;28;19958;-91
2023/06/01 09:34:20;;;;;;;;;;;;;;;34.66;17.39;98161.69;5099119;28;19927;-90
2023/06/01 09:36:47;;;;;;;;;;;;;;;34.51;18.33;98163.84;5115815;28;19938;-91
2023/06/01 09:39:14;;;;;;;;;;;;;;;35.11;17.60;98154.28;5099218;28;19921;-92
2023/06/01 09:41:54;;;;;;;;;;;;;;;35.87;16.70;98154.50;5096658;28;20398;-92
2023/06/01 09:44:30;;;;;;;;;;;;;;;35.84;17.26;98153.44;5106963;28;20340;-92
2023/06/01 09:46:57;;;;;;;;;;;;;;;36.19;17.70;98150.19;5097687;28;19967;-91
2023/06/01 09:49:27;;;;;;;;;;;;;;;36.04;16.85;98136.13;5094860;28;19935;-91
2023/06/01 09:52:05;;;;;;;;;;;;;;;36.19;16.64;98147.34;5094579;28;19924;-91
2023/06/01 09:54:34;;;;;;;;;;;;;;;35.70;16.71;98145.06;5097349;28;20445;-90
2023/06/01 09:57:01;;;;;;;;;;;;;;;35.32;19.16;98149.22;5092907;28;19916;-91
2023/06/01 09:59:30;;;;;;;;;;;;;;;34.49;18.10;98152.19;5096442;28;20298;-92
2023/06/01 10:01:58;;;;;;;;;;;;;;;35.29;16.77;98153.88;5094143;28;19951;-90
2023/06/01 10:04:25;;;;;;;;;;;;;;;36.04;17.25;98138.97;5095963;28;19924;-91
2023/06/01 10:06:52;;;;;;;;;;;;;;;36.48;17.18;98132.59;5096101;28;20387;-88
2023/06/01 10:09:19;;;;;;;;;;;;;;;36.99;15.51;98133.41;5101385;28;19920;-89
2023/06/01 10:11:47;;;;;;;;;;;;;;;37.13;16.50;98132.34;5114405;28;19916;-89
2023/06/01 10:14:14;;;;;;;;;;;;;;;36.98;17.51;98121.19;5090451;28;19924;-92
2023/06/01 10:16:41;;;;;;;;;;;;;;;36.56;16.78;98116.47;5092401;28;19920;-88
2023/06/01 10:19:07;;;;;;;;;;;;;;;36.67;17.09;98125.06;5095607;28;19915;-89
2023/06/01 10:21:33;;;;;;;;;;;;;;;35.86;17.97;98124.34;5095511;28;20348;-90
2023/06/01 10:23:59;;;;;;;;;;;;;;;36.09;18.17;98120.28;5098218;28;19927;-90
2023/06/01 10:26:27;;;;;;;;;;;;;;;35.56;18.78;98126.81;5084427;28;19920;-90
2023/06/01 10:28:54;;;;;;;;;;;;;;;36.48;15.68;98120.38;5106584;28;19926;-90
2023/06/01 10:31:37;;;;;;;;;;;;;;;36.53;16.97;98114.66;5089325;28;19927;-93
2023/06/01 10:34:04;;;;;;;;;;;;;;;36.52;15.91;98120.91;5105724;28;20006;-90
2023/06/01 10:36:49;;;;;;;;;;;;;;;36.93;15.76;98113.38;5095512;28;19978;-93
2023/06/01 10:39:22;;;;;;;;;;;;;;;35.62;18.26;98112.53;5095063;28;20011;-90
2023/06/01 10:41:48;;;;;;;;;;;;;;;34.59;18.56;98112.84;5094980;28;19927;-90
2023/06/01 10:44:32;;;;;;;;;;;;;;;34.77;18.34;98106.03;5095250;28;19920;-89
2023/06/01 10:46:58;;;;;;;;;;;;;;;36.31;17.90;98099.53;5094772;28;20395;-89
2023/06/01 10:49:44;;;;;;;;;;;;;;;36.55;16.12;98099.84;5079953;28;19919;-90
2023/06/01 10:52:28;;;;;;;;;;;;;;;37.16;16.22;98096.94;5074746;28;20391;-90
2023/06/01 10:54:56;;;;;;;;;;;;;;;37.34;15.89;98088.53;5083543;28;20705;-90
2023/06/01 10:57:23;;;;;;;;;;;;;;;36.97;16.54;98090.97;5093538;28;19930;-90
2023/06/01 11:00:09;;;;;;;;;;;;;;;37.01;16.42;98090.72;5093186;28;20016;-88
2023/06/01 11:02:41;;;;;;;;;;;;;;;36.81;15.92;98091.75;5093312;28;20027;-89
2023/06/01 11:05:26;;;;;;;;;;;;;;;36.67;16.91;98082.13;5092346;28;19928;-90
2023/06/01 11:07:52;;;;;;;;;;;;;;;37.60;15.70;98071.03;5093223;28;20279;-88
2023/06/01 11:10:37;;;;;;;;;;;;;;;37.55;15.94;98065.34;5089163;28;19961;-90
2023/06/01 11:13:17;;;;;;;;;;;;;;;37.11;15.83;98074.84;5095267;28;19924;-91
2023/06/01 11:16:02;;;;;;;;;;;;;;;37.82;15.94;98067.28;5100712;28;19998;-90
2023/06/01 11:18:41;;;;;;;;;;;;;;;38.08;15.59;98070.53;5093036;28;19917;-90
2023/06/01 11:21:08;;;;;;;;;;;;;;;37.49;16.38;98073.16;5092909;28;19916;-90
2023/06/01 11:23:36;;;;;;;;;;;;;;;38.31;14.98;98063.38;5087743;28;20014;-90
2023/06/01 11:26:04;;;;;;;;;;;;;;;38.07;16.69;98057.50;5095764;28;19924;-90
2023/06/01 11:28:31;;;;;;;;;;;;;;;38.13;16.37;98061.13;5092231;28;20032;-91
2023/06/01 11:30:59;;;;;;;;;;;;;;;38.91;14.96;98058.41;5094409;28;19920;-90
2023/06/01 11:33:28;;;;;;;;;;;;;;;39.70;14.38;98051.28;5087429;28;19990;-92
2023/06/01 11:36:04;;;;;;;;;;;;;;;38.22;15.08;98043.59;5088762;28;19927;-91
2023/06/01 11:38:38;;;;;;;;;;;;;;;38.08;14.92;98052.56;5091639;28;20038;-90
2023/06/01 11:41:04;;;;;;;;;;;;;;;38.43;15.21;98043.97;5087336;28;19924;-92
2023/06/01 11:43:31;;;;;;;;;;;;;;;38.41;14.33;98035.91;5098449;28;20016;-91
2023/06/01 11:46:15;;;;;;;;;;;;;;;38.58;14.88;98036.53;5095919;28;19927;-91
2023/06/01 11:48:42;;;;;;;;;;;;;;;38.94;14.17;98040.13;5093796;28;19920;-91
2023/06/01 11:51:08;;;;;;;;;;;;;;;38.43;15.09;98039.03;5096732;28;20379;-91
2023/06/01 11:53:34;;;;;;;;;;;;;;;38.34;14.93;98035.72;5087459;28;19928;-92
2023/06/01 11:56:01;;;;;;;;;;;;;;;37.29;16.68;98032.06;5091401;28;19954;-90
2023/06/01 11:58:28;;;;;;;;;;;;;;;36.64;15.25;98030.91;5098664;28;20006;-91
2023/06/01 12:00:55;;;;;;;;;;;;;;;37.54;14.69;98026.50;5092570;28;19923;-87
2023/06/01 12:03:23;;;;;;;;;;;;;;;38.77;14.77;98027.28;5092132;28;20014;-91
2023/06/01 12:05:50;;;;;;;;;;;;;;;39.31;15.19;98020.13;5092115;28;19916;-91
2023/06/01 12:08:18;;;;;;;;;;;;;;;39.01;14.20;98015.78;5095712;28;19924;-91
2023/06/01 12:10:46;;;;;;;;;;;;;;;38.73;16.16;98016.06;5087289;28;19954;-91
2023/06/01 12:13:13;;;;;;;;;;;;;;;37.88;16.93;98025.06;5091952;28;19924;-91
2023/06/01 12:15:39;;;;;;;;;;;;;;;37.74;15.88;98014.69;5092517;28;19939;-92
2023/06/01 12:18:05;;;;;;;;;;;;;;;38.07;14.20;98013.72;5093564;28;20375;-92
2023/06/01 12:20:36;;;;;;;;;;;;;;;38.51;14.41;98013.41;5092998;28;19977;-92
2023/06/01 12:23:15;;;;;;;;;;;;;;;38.88;15.92;98010.69;5103390;28;20409;-91
2023/06/01 12:25:58;;;;;;;;;;;;;;;38.89;13.80;98015.13;5093828;28;20564;-91
2023/06/01 12:28:26;;;;;;;;;;;;;;;37.45;16.37;98006.78;5093028;28;19916;-92
2023/06/01 12:31:07;;;;;;;;;;;;;;;38.35;15.72;98000.72;5087554;28;19935;-93
2023/06/01 12:33:36;;;;;;;;;;;;;;;38.79;15.31;97999.56;5096955;28;19943;-93
2023/06/01 12:36:04;;;;;;;;;;;;;;;37.78;16.42;97998.00;5075038;28;20390;-91
2023/06/01 12:38:36;;;;;;;;;;;;;;;38.63;15.52;97994.72;5090972;28;19994;-91
2023/06/01 12:41:07;;;;;;;;;;;;;;;38.72;13.96;97985.03;5094222;28;20433;-92
2023/06/01 12:43:34;;;;;;;;;;;;;;;37.96;16.45;97988.75;5094722;28;20014;-92
2023/06/01 12:46:01;;;;;;;;;;;;;;;37.93;14.66;97989.81;5093688;28;19971;-91
2023/06/01 12:48:33;;;;;;;;;;;;;;;38.19;15.54;97986.50;5090161;28;19916;-92
2023/06/01 12:51:00;;;;;;;;;;;;;;;38.54;16.25;97978.66;5095019;28;20020;-91
2023/06/01 12:53:26;;;;;;;;;;;;;;;38.51;14.97;97978.97;5092890;28;19920;-91
2023/06/01 12:55:53;;;;;;;;;;;;;;;38.72;15.22;97982.16;5093418;28;19935;-92
2023/06/01 12:58:19;;;;;;;;;;;;;;;38.40;14.65;97981.91;5092384;28;19938;-93